Greeley West High School, Colorado
Current Conditions -  °F | °C
As of 6:55 AM on Monday 24 Nov 2014 (Local Time) from KGXY Reporting Station
Few Clouds Few Clouds  
Wind Chill: 26°   Ceiling: Unl
Heat Index: 34°   Visibility: 10mi
Dew Point: 12°   Wind: 9mph
Humidity: 41%   Direction: 300°WNW
Pressure: 29.88"   Gusts: NA
Location:  40.41412°N, 104.7064°W
Report Text: KGXY 241355Z AUTO 30008KT 10SM FEW100 01/M11 A2988 RMK AO1
Loading
Personal Weather Stations






























Interactive Weather Map New forecast layout! Learn more

10-Day Weather Forecast

Advertisements
Track Severe Weather on mobile